createdAt,value
2022-12-05T00:01:35.931Z,46.03
2022-12-05T00:04:05.864Z,52.70
2022-12-05T00:06:35.468Z,40.85
2022-12-05T00:09:02.147Z,42.15
2022-12-05T00:11:33.212Z,41.90
2022-12-05T00:14:01.020Z,45.53
2022-12-05T00:16:30.654Z,50.42
2022-12-05T00:19:01.715Z,48.55
2022-12-05T00:21:30.337Z,45.83
2022-12-05T00:23:59.469Z,50.35
2022-12-05T00:26:26.866Z,45.00
2022-12-05T00:28:55.770Z,44.60
2022-12-05T00:31:23.806Z,49.22
2022-12-05T00:33:51.312Z,40.20
2022-12-05T00:36:21.441Z,40.30
2022-12-05T00:38:48.365Z,46.28
2022-12-05T00:41:18.925Z,49.53
2022-12-05T00:43:46.683Z,47.22
2022-12-05T00:46:20.318Z,41.65
2022-12-05T00:48:47.313Z,44.90
2022-12-05T00:51:19.815Z,42.95
2022-12-05T00:53:47.233Z,45.85
2022-12-05T00:56:17.096Z,41.90
2022-12-05T00:58:46.194Z,46.05
2022-12-05T01:01:14.622Z,48.60
2022-12-05T01:06:08.490Z,46.20
2022-12-05T01:08:35.684Z,45.25
2022-12-05T01:11:03.127Z,46.45
2022-12-05T01:13:33.464Z,41.88
2022-12-05T01:16:00.176Z,45.10
2022-12-05T01:18:27.402Z,43.38
2022-12-05T01:20:54.235Z,45.55
2022-12-05T01:23:21.548Z,45.95
2022-12-05T01:25:49.762Z,47.05
2022-12-05T01:28:17.023Z,45.30
2022-12-05T01:30:45.911Z,43.22
2022-12-05T01:33:12.553Z,44.03
2022-12-05T01:35:42.405Z,47.75
2022-12-05T01:38:11.451Z,43.42
2022-12-05T01:40:40.225Z,44.10
2022-12-05T01:43:14.454Z,45.42
2022-12-05T01:45:43.270Z,45.95
2022-12-05T01:48:19.420Z,43.55
2022-12-05T01:50:47.808Z,44.10
2022-12-05T01:53:15.483Z,47.08
2022-12-05T01:55:42.735Z,43.50
2022-12-05T01:58:10.238Z,48.80
2022-12-05T02:00:36.598Z,48.57
2022-12-05T02:03:08.346Z,46.83
2022-12-05T02:05:36.867Z,45.45
2022-12-05T02:10:36.341Z,51.92
2022-12-05T02:13:30.083Z,45.08
2022-12-05T02:16:02.661Z,40.80
2022-12-05T02:18:34.360Z,43.95
2022-12-05T02:21:41.180Z,49.75
2022-12-05T02:24:27.081Z,45.33
2022-12-05T02:27:07.920Z,53.70
2022-12-05T02:30:04.538Z,44.45
2022-12-05T02:32:45.937Z,42.40
2022-12-05T02:35:18.530Z,46.72
2022-12-05T02:38:15.495Z,41.90
2022-12-05T02:41:19.403Z,48.45
2022-12-05T02:44:02.147Z,48.80
2022-12-05T02:46:31.088Z,45.85
2022-12-05T02:49:05.870Z,44.58
2022-12-05T02:51:38.024Z,47.97
2022-12-05T02:54:10.161Z,41.55
2022-12-05T02:56:37.327Z,51.20
2022-12-05T02:59:04.305Z,45.30
2022-12-05T03:01:32.665Z,44.53
2022-12-05T03:04:03.005Z,45.90
2022-12-05T03:06:37.031Z,45.92
2022-12-05T03:09:14.592Z,44.45
2022-12-05T03:11:49.562Z,47.40
2022-12-05T03:14:22.747Z,45.72
2022-12-05T03:16:52.176Z,44.50
2022-12-05T03:19:27.084Z,46.30
2022-12-05T03:22:08.582Z,46.25
2022-12-05T03:24:37.619Z,48.00
2022-12-05T03:27:30.825Z,45.03
2022-12-05T03:30:05.816Z,49.88
2022-12-05T03:32:35.595Z,46.80
2022-12-05T03:35:11.116Z,46.88
2022-12-05T03:37:50.123Z,45.92
2022-12-05T03:40:32.273Z,44.13
2022-12-05T03:43:09.782Z,43.20
2022-12-05T03:45:47.932Z,40.17
2022-12-05T03:48:23.866Z,45.83
2022-12-05T03:50:53.796Z,43.53
2022-12-05T03:53:28.847Z,44.85
2022-12-05T03:56:06.375Z,45.65
2022-12-05T03:58:56.730Z,40.33
2022-12-05T04:01:28.138Z,40.70
2022-12-05T04:04:09.515Z,41.22
2022-12-05T04:06:40.052Z,40.10
2022-12-05T04:09:23.249Z,43.13
2022-12-05T04:12:02.263Z,48.83
2022-12-05T04:14:35.186Z,39.65
2022-12-05T04:17:06.722Z,41.25
2022-12-05T04:20:13.759Z,36.33
2022-12-05T04:22:41.248Z,42.17
2022-12-05T04:25:30.867Z,40.63
2022-12-05T04:28:21.909Z,39.72
2022-12-05T04:31:35.929Z,43.63
2022-12-05T04:34:08.444Z,40.10
2022-12-05T04:36:41.984Z,42.20
2022-12-05T04:39:18.029Z,39.97
2022-12-05T04:42:08.969Z,37.75
2022-12-05T04:44:42.632Z,37.47
2022-12-05T04:47:10.992Z,37.63
2022-12-05T04:49:40.869Z,47.28
2022-12-05T04:52:11.911Z,34.67
2022-12-05T04:54:57.310Z,37.28
2022-12-05T04:57:33.880Z,38.72
2022-12-05T05:00:00.746Z,38.90
2022-12-05T05:02:41.388Z,37.17
2022-12-05T05:05:14.161Z,38.00
2022-12-05T05:07:49.808Z,41.28
2022-12-05T05:10:34.230Z,39.88
2022-12-05T05:13:00.766Z,37.95
2022-12-05T05:15:27.073Z,41.08
2022-12-05T05:17:53.388Z,39.72
2022-12-05T05:20:27.045Z,37.88
2022-12-05T05:22:58.092Z,43.08
2022-12-05T05:25:25.723Z,46.78
2022-12-05T05:27:54.831Z,36.70
2022-12-05T05:30:24.410Z,40.78
2022-12-05T05:32:51.091Z,37.40
2022-12-05T05:35:17.577Z,36.13
2022-12-05T05:37:44.178Z,37.65
2022-12-05T05:40:12.338Z,42.33
2022-12-05T05:42:44.855Z,36.38
2022-12-05T05:45:12.991Z,35.45
2022-12-05T05:47:39.809Z,37.10
2022-12-05T05:50:06.973Z,36.05
2022-12-05T05:52:35.572Z,39.70
2022-12-05T05:55:02.999Z,34.92
2022-12-05T05:57:30.791Z,42.40
2022-12-05T05:59:57.410Z,51.72
2022-12-05T06:02:24.246Z,45.80
2022-12-05T06:04:51.143Z,33.60
2022-12-05T06:07:17.585Z,39.30
2022-12-05T06:09:43.903Z,40.05
2022-12-05T06:12:10.339Z,38.92
2022-12-05T06:14:36.647Z,44.63
2022-12-05T06:17:02.997Z,43.00
2022-12-05T06:19:31.739Z,40.05
2022-12-05T06:21:58.301Z,43.63
2022-12-05T06:24:24.690Z,41.25
2022-12-05T06:26:51.374Z,41.55
2022-12-05T06:29:21.608Z,42.78
2022-12-05T06:31:50.934Z,45.10
2022-12-05T06:34:17.474Z,39.83
2022-12-05T06:36:43.890Z,40.20
2022-12-05T06:39:10.381Z,36.20
2022-12-05T06:41:37.085Z,40.40
2022-12-05T06:44:03.608Z,36.63
2022-12-05T06:46:30.513Z,39.75
2022-12-05T06:48:57.792Z,35.33
2022-12-05T06:51:24.775Z,41.80
2022-12-05T06:53:51.139Z,41.13
2022-12-05T06:56:19.804Z,41.83
2022-12-05T06:58:53.835Z,43.67
2022-12-05T07:01:42.122Z,36.22
2022-12-05T07:04:25.762Z,38.65
2022-12-05T07:06:54.207Z,30.85
2022-12-05T07:11:51.360Z,34.13
2022-12-05T07:14:45.406Z,29.02
2022-12-05T07:17:05.197Z,33.55
2022-12-05T07:19:32.289Z,30.00
2022-12-05T07:21:58.824Z,29.27
2022-12-05T07:24:25.547Z,28.42
2022-12-05T07:26:52.048Z,34.58
2022-12-05T07:29:18.684Z,33.75
2022-12-05T07:31:45.514Z,33.53
2022-12-05T07:34:12.146Z,32.15
2022-12-05T07:36:38.749Z,33.45
2022-12-05T07:39:05.154Z,31.45
2022-12-05T07:41:33.462Z,30.17
2022-12-05T07:44:00.442Z,34.53
2022-12-05T07:46:28.577Z,35.72
2022-12-05T07:48:55.430Z,34.17
2022-12-05T07:51:22.483Z,30.05
2022-12-05T07:53:49.092Z,36.53
2022-12-05T07:56:17.481Z,33.40
2022-12-05T07:58:45.674Z,40.50
2022-12-05T08:01:16.308Z,39.15
2022-12-05T08:03:44.321Z,31.17
2022-12-05T08:06:18.196Z,31.15
2022-12-05T08:08:44.988Z,35.53
2022-12-05T08:11:17.172Z,35.25
2022-12-05T08:13:44.069Z,34.35
2022-12-05T08:16:14.600Z,41.80
2022-12-05T08:18:41.676Z,40.33
2022-12-05T08:21:12.111Z,36.88
2022-12-05T08:23:39.829Z,43.05
2022-12-05T08:26:13.785Z,43.00
2022-12-05T08:28:40.835Z,44.50
2022-12-05T08:31:10.866Z,39.45
2022-12-05T08:33:38.180Z,43.10
2022-12-05T08:36:06.912Z,42.30
2022-12-05T08:38:34.401Z,41.85
2022-12-05T08:41:02.196Z,41.50
2022-12-05T08:43:32.472Z,34.47
2022-12-05T08:45:59.940Z,35.40
2022-12-05T08:48:29.826Z,39.17
2022-12-05T08:50:57.269Z,41.33
2022-12-05T08:53:23.609Z,37.53
2022-12-05T08:55:50.139Z,36.67
2022-12-05T08:58:16.574Z,41.20
2022-12-05T09:00:43.544Z,36.85
2022-12-05T09:03:11.645Z,47.70
2022-12-05T09:05:38.511Z,43.72
2022-12-05T09:08:05.516Z,35.35
2022-12-05T09:10:32.098Z,30.98
2022-12-05T09:13:00.104Z,37.63
2022-12-05T09:15:26.740Z,37.35
2022-12-05T09:17:53.056Z,37.47
2022-12-05T09:20:19.939Z,37.45
2022-12-05T09:22:46.454Z,40.85
2022-12-05T09:25:12.813Z,39.70
2022-12-05T09:27:39.160Z,47.03
2022-12-05T09:30:06.289Z,35.95
2022-12-05T09:32:32.795Z,44.60
2022-12-05T09:34:59.586Z,44.67
2022-12-05T09:37:41.159Z,43.20
2022-12-05T09:40:15.182Z,49.00
2022-12-05T09:43:01.517Z,45.15
2022-12-05T09:45:35.644Z,34.33
2022-12-05T09:48:12.083Z,38.05
2022-12-05T09:50:44.472Z,44.17
2022-12-05T09:53:23.074Z,44.80
2022-12-05T09:55:53.335Z,52.55
2022-12-05T09:58:22.342Z,53.60
2022-12-05T10:00:54.267Z,43.55
2022-12-05T10:03:45.665Z,35.08
2022-12-05T10:06:29.060Z,44.65
2022-12-05T10:09:15.451Z,42.72
2022-12-05T10:12:19.704Z,52.40
2022-12-05T10:15:01.411Z,37.95
2022-12-05T10:17:37.079Z,34.08
2022-12-05T10:20:13.384Z,40.38
2022-12-05T10:23:18.795Z,42.75
2022-12-05T10:25:59.644Z,40.23
2022-12-05T10:28:34.970Z,44.38
2022-12-05T10:31:07.873Z,47.60
2022-12-05T10:33:43.485Z,44.35
2022-12-05T10:36:12.187Z,54.53
2022-12-05T10:38:39.590Z,48.90
2022-12-05T10:41:10.736Z,53.47
2022-12-05T10:43:41.217Z,59.67
2022-12-05T10:46:09.791Z,54.10
2022-12-05T10:48:41.500Z,51.83
2022-12-05T10:51:13.953Z,52.95
2022-12-05T10:53:49.638Z,57.03
2022-12-05T10:56:40.903Z,49.85
2022-12-05T10:59:09.326Z,47.25
2022-12-05T11:01:40.590Z,48.20
2022-12-05T11:04:26.182Z,52.55
2022-12-05T11:06:56.637Z,45.15
2022-12-05T11:09:26.033Z,50.75
2022-12-05T11:12:15.956Z,72.43
2022-12-05T11:14:58.099Z,46.60
2022-12-05T11:17:30.842Z,65.75
2022-12-05T11:19:57.265Z,46.15
2022-12-05T11:22:37.041Z,42.40
2022-12-05T11:25:30.039Z,49.85
2022-12-05T11:28:21.351Z,40.65
2022-12-05T11:30:58.609Z,45.85
2022-12-05T11:33:27.599Z,37.10
2022-12-05T11:36:04.283Z,37.55
2022-12-05T11:38:32.853Z,35.83
2022-12-05T11:41:47.848Z,49.70
2022-12-05T11:44:33.421Z,40.67
2022-12-05T11:47:25.324Z,51.25
2022-12-05T11:50:04.460Z,39.20
2022-12-05T11:52:57.888Z,37.05
2022-12-05T11:55:34.008Z,38.83
2022-12-05T11:58:29.029Z,38.67
2022-12-05T12:01:18.664Z,37.20
2022-12-05T12:03:58.194Z,35.97
2022-12-05T12:06:33.539Z,40.45
2022-12-05T12:09:23.405Z,34.67
2022-12-05T12:12:03.330Z,35.17
2022-12-05T12:14:55.474Z,35.85
2022-12-05T12:17:47.056Z,33.50
2022-12-05T12:20:41.688Z,31.13
2022-12-05T12:23:29.834Z,34.80
2022-12-05T12:26:16.078Z,30.20
2022-12-05T12:28:46.330Z,32.53
2022-12-05T12:31:12.885Z,32.55
2022-12-05T12:33:57.473Z,47.53
2022-12-05T12:36:42.281Z,40.13
2022-12-05T12:39:24.221Z,37.40
2022-12-05T12:42:09.339Z,32.25
2022-12-05T12:44:54.658Z,33.60
2022-12-05T12:47:40.103Z,30.65
2022-12-05T12:50:21.324Z,29.73
2022-12-05T12:53:03.939Z,27.45
2022-12-05T12:55:54.151Z,46.60
2022-12-05T12:58:42.198Z,40.80
2022-12-05T13:01:22.733Z,33.47
2022-12-05T13:04:02.401Z,35.00
2022-12-05T13:06:56.810Z,29.05
2022-12-05T13:09:32.445Z,34.40
2022-12-05T13:12:07.784Z,30.70
2022-12-05T13:14:37.396Z,27.77
2022-12-05T13:17:06.413Z,32.28
2022-12-05T13:19:44.139Z,27.63
2022-12-05T13:22:12.939Z,29.88
2022-12-05T13:24:39.894Z,26.10
2022-12-05T13:27:09.348Z,27.17
2022-12-05T13:29:42.846Z,27.98
2022-12-05T13:32:34.353Z,27.33
2022-12-05T13:35:07.118Z,29.50
2022-12-05T13:37:53.469Z,36.03
2022-12-05T13:40:45.892Z,31.15
2022-12-05T13:43:15.436Z,34.35
2022-12-05T13:45:53.680Z,27.48
2022-12-05T13:48:26.254Z,48.45
2022-12-05T13:51:13.835Z,35.10
2022-12-05T13:53:47.403Z,30.73
2022-12-05T13:56:13.719Z,26.95
2022-12-05T13:58:47.946Z,30.83
2022-12-05T14:01:26.890Z,28.35
2022-12-05T14:03:56.218Z,30.67
2022-12-05T14:06:34.801Z,36.25
2022-12-05T14:09:02.492Z,30.65
2022-12-05T14:11:29.015Z,30.75
2022-12-05T14:13:59.145Z,32.40
2022-12-05T14:16:30.371Z,28.60
2022-12-05T14:19:16.644Z,29.08
2022-12-05T14:21:53.918Z,34.55
2022-12-05T14:24:35.935Z,49.33
2022-12-05T14:27:35.839Z,155.90
2022-12-05T14:30:06.169Z,156.68
2022-12-05T14:32:36.516Z,201.50
2022-12-05T14:35:17.259Z,125.57
2022-12-05T14:37:53.081Z,86.65
2022-12-05T14:40:36.498Z,58.45
2022-12-05T14:43:15.437Z,38.05
2022-12-05T14:45:57.071Z,34.53
2022-12-05T14:48:40.108Z,34.40
2022-12-05T14:51:30.775Z,28.95
2022-12-05T14:56:29.786Z,25.17
2022-12-05T14:59:09.669Z,32.85
2022-12-05T15:01:49.778Z,33.97
2022-12-05T15:04:35.089Z,38.35
2022-12-05T15:07:09.616Z,36.65
2022-12-05T15:09:37.611Z,37.97
2022-12-05T15:12:11.165Z,33.70
2022-12-05T15:14:45.962Z,29.98
2022-12-05T15:17:18.430Z,29.15
2022-12-05T15:19:51.734Z,25.15
2022-12-05T15:22:21.424Z,26.63
2022-12-05T15:24:47.937Z,60.20
2022-12-05T15:27:15.528Z,49.70
2022-12-05T15:29:42.350Z,54.93
2022-12-05T15:32:11.742Z,49.58
2022-12-05T15:34:45.406Z,39.70
2022-12-05T15:37:59.817Z,35.50
2022-12-05T15:40:26.427Z,29.02
2022-12-05T15:42:57.522Z,31.83
2022-12-05T15:45:27.090Z,32.58
2022-12-05T15:48:11.206Z,28.83
2022-12-05T15:50:51.298Z,32.40
2022-12-05T15:53:43.927Z,33.10
2022-12-05T15:56:40.818Z,34.63
2022-12-05T15:59:35.138Z,31.35
2022-12-05T16:02:26.579Z,30.38
2022-12-05T16:04:56.650Z,32.63
2022-12-05T16:07:28.702Z,36.25
2022-12-05T16:10:00.719Z,41.53
2022-12-05T16:12:38.344Z,43.85
2022-12-05T16:15:13.815Z,45.00
2022-12-05T16:17:47.186Z,38.38
2022-12-05T16:20:16.520Z,68.65
2022-12-05T16:22:53.967Z,42.65
2022-12-05T16:25:29.735Z,36.90
2022-12-05T16:28:16.866Z,35.35
2022-12-05T16:30:58.210Z,46.53
2022-12-05T16:33:26.297Z,44.50
2022-12-05T16:35:53.224Z,36.92
2022-12-05T16:38:21.357Z,34.78
2022-12-05T16:40:52.915Z,29.27
2022-12-05T16:43:22.790Z,34.88
2022-12-05T16:45:50.685Z,31.88
2022-12-05T16:48:22.119Z,56.20
2022-12-05T16:50:50.916Z,41.35
2022-12-05T16:53:29.811Z,50.95
2022-12-05T16:55:58.926Z,41.28
2022-12-05T16:58:27.553Z,69.50
2022-12-05T17:01:06.657Z,69.20
2022-12-05T17:03:35.474Z,107.43
2022-12-05T17:06:03.029Z,68.03
2022-12-05T17:08:29.615Z,49.67
2022-12-05T17:10:59.032Z,48.90
2022-12-05T17:13:25.459Z,32.83
2022-12-05T17:15:52.354Z,43.38
2022-12-05T17:18:21.866Z,31.40
2022-12-05T17:20:54.263Z,29.67
2022-12-05T17:23:20.868Z,27.10
2022-12-05T17:25:58.560Z,25.08
2022-12-05T17:28:25.890Z,27.20
2022-12-05T17:30:52.935Z,30.58
2022-12-05T17:33:19.684Z,25.75
2022-12-05T17:35:46.849Z,29.35
2022-12-05T17:38:13.323Z,26.15
2022-12-05T17:40:40.400Z,27.95
2022-12-05T17:43:08.134Z,24.67
2022-12-05T17:45:34.442Z,25.67
2022-12-05T17:48:00.992Z,26.05
2022-12-05T17:50:29.779Z,26.58
2022-12-05T17:53:01.620Z,24.42
2022-12-05T17:55:32.204Z,27.20
2022-12-05T17:57:58.697Z,26.85
2022-12-05T18:00:25.324Z,25.42
2022-12-05T18:02:52.785Z,23.75
2022-12-05T18:05:19.521Z,25.43
2022-12-05T18:07:46.367Z,30.42
2022-12-05T18:10:16.368Z,42.00
2022-12-05T18:12:42.811Z,25.35
2022-12-05T18:15:12.108Z,24.45
2022-12-05T18:17:39.002Z,26.92
2022-12-05T18:20:08.478Z,34.42
2022-12-05T18:22:35.354Z,41.08
2022-12-05T18:25:03.401Z,53.22
2022-12-05T18:27:32.674Z,38.70
2022-12-05T18:30:00.039Z,28.60
2022-12-05T18:32:26.496Z,35.75
2022-12-05T18:34:53.178Z,37.45
2022-12-05T18:37:19.760Z,23.52
2022-12-05T18:39:46.443Z,24.27
2022-12-05T18:42:15.243Z,28.83
2022-12-05T18:44:43.613Z,25.23
2022-12-05T18:47:10.082Z,28.20
2022-12-05T18:49:36.597Z,25.70
2022-12-05T18:52:03.239Z,25.55
2022-12-05T18:54:30.675Z,51.85
2022-12-05T18:56:58.761Z,33.03
2022-12-05T18:59:28.524Z,32.30
2022-12-05T19:01:55.657Z,28.70
2022-12-05T19:04:22.350Z,38.05
2022-12-05T19:06:50.407Z,30.27
2022-12-05T19:09:18.586Z,26.60
2022-12-05T19:11:47.973Z,28.83
2022-12-05T19:14:16.696Z,51.03
2022-12-05T19:16:43.298Z,46.67
2022-12-05T19:19:14.325Z,55.15
2022-12-05T19:21:42.890Z,34.10
2022-12-05T19:24:12.116Z,46.03
2022-12-05T19:26:38.904Z,62.72
2022-12-05T19:29:05.962Z,67.60
2022-12-05T19:31:33.411Z,50.53
2022-12-05T19:34:02.042Z,36.57
2022-12-05T19:38:56.640Z,30.23
2022-12-05T19:41:30.256Z,30.30
2022-12-05T19:44:00.234Z,34.55
2022-12-05T19:46:29.747Z,30.00
2022-12-05T19:48:57.972Z,35.30
2022-12-05T19:51:26.986Z,30.85
2022-12-05T19:53:53.765Z,29.05
2022-12-05T19:56:25.669Z,25.20
2022-12-05T19:58:55.466Z,30.08
2022-12-05T20:01:30.485Z,34.10
2022-12-05T20:04:00.288Z,25.55
2022-12-05T20:06:34.713Z,26.67
2022-12-05T20:09:01.705Z,29.17
2022-12-05T20:11:31.837Z,24.73
2022-12-05T20:14:01.926Z,32.20
2022-12-05T20:16:29.216Z,31.35
2022-12-05T20:19:00.524Z,22.52
2022-12-05T20:21:29.933Z,28.52
2022-12-05T20:23:58.081Z,23.58
2022-12-05T20:26:28.744Z,26.38
2022-12-05T20:28:58.900Z,30.75
2022-12-05T20:31:30.232Z,29.17
2022-12-05T20:33:56.938Z,34.30
2022-12-05T20:36:26.910Z,39.10
2022-12-05T20:38:58.521Z,40.75
2022-12-05T20:41:25.146Z,51.70
2022-12-05T20:43:58.160Z,32.17
2022-12-05T20:46:25.222Z,35.05
2022-12-05T20:48:53.622Z,34.28
2022-12-05T20:51:28.206Z,32.33
2022-12-05T20:53:55.136Z,30.98
2022-12-05T20:56:25.275Z,27.20
2022-12-05T20:58:54.422Z,26.15
2022-12-05T21:01:22.534Z,26.48
2022-12-05T21:03:50.838Z,25.08
2022-12-05T21:06:26.119Z,26.80
2022-12-05T21:08:54.427Z,25.52
2022-12-05T21:11:22.257Z,42.08
2022-12-05T21:13:48.970Z,34.63
2022-12-05T21:16:18.253Z,47.97
2022-12-05T21:18:45.987Z,42.03
2022-12-05T21:21:15.159Z,33.60
2022-12-05T21:23:43.112Z,35.58
2022-12-05T21:26:13.219Z,28.75
2022-12-05T21:28:42.168Z,26.20
2022-12-05T21:31:12.518Z,29.15
2022-12-05T21:33:40.506Z,27.13
2022-12-05T21:36:07.972Z,29.30
2022-12-05T21:38:34.830Z,27.90
2022-12-05T21:41:04.397Z,24.95
2022-12-05T21:43:31.204Z,29.45
2022-12-05T21:45:57.984Z,24.27
2022-12-05T21:48:25.450Z,24.27
2022-12-05T21:50:52.327Z,24.80
2022-12-05T21:53:20.132Z,26.27
2022-12-05T21:55:47.083Z,21.95
2022-12-05T21:58:14.018Z,22.13
2022-12-05T22:00:40.616Z,20.83
2022-12-05T22:03:07.668Z,25.55
2022-12-05T22:05:34.468Z,21.58
2022-12-05T22:08:05.984Z,21.50
2022-12-05T22:10:34.461Z,22.00
2022-12-05T22:13:00.829Z,20.20
2022-12-05T22:15:27.520Z,19.58
2022-12-05T22:17:54.153Z,28.88
2022-12-05T22:20:20.484Z,36.22
2022-12-05T22:22:46.834Z,58.95
2022-12-05T22:25:13.171Z,34.03
2022-12-05T22:27:39.681Z,32.35
2022-12-05T22:30:07.005Z,26.50
2022-12-05T22:32:34.922Z,23.50
2022-12-05T22:35:04.266Z,22.45
2022-12-05T22:37:31.180Z,24.13
2022-12-05T22:39:58.059Z,21.20
2022-12-05T22:42:26.142Z,23.83
2022-12-05T22:44:52.475Z,25.58
2022-12-05T22:47:18.934Z,21.58
2022-12-05T22:49:46.789Z,24.33
2022-12-05T22:52:15.317Z,23.55
2022-12-05T22:57:08.408Z,19.70
2022-12-05T22:59:35.006Z,20.20
2022-12-05T23:02:01.708Z,20.73
2022-12-05T23:04:28.430Z,20.98
2022-12-05T23:06:54.937Z,20.38
2022-12-05T23:09:21.396Z,24.77
2022-12-05T23:11:51.516Z,22.77
2022-12-05T23:14:18.160Z,21.75
2022-12-05T23:16:44.567Z,18.65
2022-12-05T23:19:11.218Z,20.70
2022-12-05T23:21:39.539Z,16.50
2022-12-05T23:24:10.170Z,20.20
2022-12-05T23:26:40.343Z,23.55
2022-12-05T23:29:07.311Z,21.98
2022-12-05T23:31:34.094Z,20.38
2022-12-05T23:34:03.449Z,21.63
2022-12-05T23:36:32.418Z,22.17
2022-12-05T23:38:58.816Z,23.75
2022-12-05T23:41:26.229Z,19.55
2022-12-05T23:43:53.010Z,35.33
2022-12-05T23:46:22.768Z,23.58
2022-12-05T23:48:49.758Z,21.55
2022-12-05T23:51:22.114Z,26.70
2022-12-05T23:53:53.042Z,23.15
2022-12-05T23:56:22.644Z,24.00
2022-12-05T23:58:49.149Z,30.30
